Time;durP1;ratioP1;P1;durP2;ratioP2;P2;SDS_P1;SDS_P2;PMS_P1;PMS_P2;Temp;Humidity;BMP_temperature;BMP_pressure;BME280_temperature;BME280_humidity;BME280_pressure;Samples;Min_cycle;Max_cycle;Signal;HPM_P1;HPM_P2
2022/05/22 00:00:07;;;;;;;1.27;1.17;;;;;;;18.08;48.29;99853.44;4374677;32;33378;-86
2022/05/22 00:02:40;;;;;;;1.80;1.10;;;;;;;18.20;47.88;99846.34;4364914;32;33542;-86
2022/05/22 00:05:12;;;;;;;1.98;1.20;;;;;;;18.06;48.52;99850.91;4378295;32;32202;-86
2022/05/22 00:07:40;;;;;;;1.55;1.00;;;;;;;18.14;48.36;99842.31;4364038;32;33048;-88
2022/05/22 00:10:10;;;;;;;1.33;1.00;;;;;;;17.98;48.70;99831.91;4353443;32;32950;-89
2022/05/22 00:12:43;;;;;;;2.25;1.40;;;;;;;17.97;48.31;99838.22;4367194;32;33111;-94
2022/05/22 00:15:29;;;;;;;1.98;1.27;;;;;;;17.98;48.19;99837.25;4372997;32;32217;-91
2022/05/22 00:18:12;;;;;;;1.20;0.95;;;;;;;18.06;48.88;99829.50;4390019;32;33179;-92
2022/05/22 00:20:54;;;;;;;3.72;1.60;;;;;;;18.14;48.53;99828.97;4377198;32;33687;-91
2022/05/22 00:23:36;;;;;;;2.33;1.00;;;;;;;17.96;49.62;99823.16;4378644;32;32956;-92
2022/05/22 00:26:30;;;;;;;2.35;0.90;;;;;;;17.88;49.82;99828.19;4382373;32;34035;-90
2022/05/22 00:29:13;;;;;;;1.70;0.85;;;;;;;17.88;48.71;99817.50;4383825;32;33152;-89
2022/05/22 00:31:56;;;;;;;2.92;1.05;;;;;;;17.92;48.31;99819.84;4401518;32;32974;-90
2022/05/22 00:34:38;;;;;;;1.58;1.08;;;;;;;17.36;49.83;99822.12;4385497;32;34065;-92
2022/05/22 00:37:20;;;;;;;1.35;1.00;;;;;;;17.38;49.33;99824.69;4385712;32;33108;-92
2022/05/22 00:40:04;;;;;;;1.60;1.00;;;;;;;17.38;49.40;99819.34;4364726;32;33073;-92
2022/05/22 00:42:50;;;;;;;1.00;0.90;;;;;;;17.22;49.79;99818.72;4381005;32;33341;-91
2022/05/22 00:45:30;;;;;;;1.48;1.02;;;;;;;17.33;49.53;99821.50;4391588;32;34579;-89
2022/05/22 00:47:59;;;;;;;1.33;1.00;;;;;;;17.04;50.33;99824.41;4370074;32;33768;-89
2022/05/22 00:50:26;;;;;;;3.47;1.10;;;;;;;17.27;49.63;99827.25;4378223;32;32840;-89
2022/05/22 00:52:57;;;;;;;1.10;1.00;;;;;;;17.36;49.38;99821.25;4390722;32;33942;-89
2022/05/22 00:55:30;;;;;;;1.90;1.45;;;;;;;17.41;49.11;99830.63;4386001;32;33169;-89
2022/05/22 00:58:01;;;;;;;1.27;1.08;;;;;;;17.51;48.86;99822.81;4387748;32;33129;-89
2022/05/22 01:00:34;;;;;;;1.15;0.80;;;;;;;17.51;49.12;99830.84;4382717;32;32770;-89
2022/05/22 01:03:26;;;;;;;1.35;0.95;;;;;;;17.76;48.63;99826.44;4372131;32;33265;-89
2022/05/22 01:05:56;;;;;;;3.22;1.25;;;;;;;17.69;49.00;99822.47;4390763;32;32804;-88
2022/05/22 01:08:24;;;;;;;3.78;1.12;;;;;;;17.63;48.88;99824.63;4391508;32;34410;-87
2022/05/22 01:10:55;;;;;;;1.90;1.00;;;;;;;17.71;48.92;99820.53;4379021;32;32871;-88
2022/05/22 01:13:31;;;;;;;3.92;1.37;;;;;;;17.67;49.32;99815.44;4392047;32;34487;-89
2022/05/22 01:15:59;;;;;;;1.10;0.90;;;;;;;17.80;49.14;99818.09;4371164;32;33843;-89
2022/05/22 01:18:27;;;;;;;3.08;1.50;;;;;;;17.65;49.77;99813.81;4391492;32;32737;-89
2022/05/22 01:20:56;;;;;;;2.33;1.10;;;;;;;17.57;50.36;99817.06;4378885;32;34193;-89
2022/05/22 01:23:30;;;;;;;3.60;1.90;;;;;;;17.44;50.61;99818.91;4391729;32;34757;-88
2022/05/22 01:26:02;;;;;;;3.40;0.82;;;;;;;17.38;50.68;99819.34;4391510;32;32437;-89
2022/05/22 01:28:30;;;;;;;1.85;1.50;;;;;;;17.47;50.58;99818.69;4383347;32;32379;-89
2022/05/22 01:31:00;;;;;;;0.85;0.85;;;;;;;17.09;50.76;99819.59;4379085;32;33092;-89
2022/05/22 01:33:28;;;;;;;1.83;1.50;;;;;;;17.59;49.93;99814.28;4391107;32;33719;-89
2022/05/22 01:35:58;;;;;;;1.00;0.90;;;;;;;17.51;50.44;99814.81;4391161;32;33901;-89
2022/05/22 01:38:28;;;;;;;2.33;1.23;;;;;;;17.57;49.90;99808.22;4379083;32;33334;-89
2022/05/22 01:40:56;;;;;;;1.25;0.82;;;;;;;17.53;50.20;99810.25;4366858;32;33779;-89
2022/05/22 01:43:27;;;;;;;2.47;1.08;;;;;;;17.45;50.31;99803.75;4366711;32;34026;-90
2022/05/22 01:45:56;;;;;;;2.10;1.10;;;;;;;17.51;50.38;99805.97;4380064;32;32827;-91
2022/05/22 01:48:25;;;;;;;1.55;1.30;;;;;;;17.52;50.13;99811.22;4379870;32;32708;-90
2022/05/22 01:50:54;;;;;;;1.35;1.20;;;;;;;17.51;49.74;99808.63;4379668;32;33668;-90
2022/05/22 01:53:22;;;;;;;1.37;1.27;;;;;;;17.46;50.09;99816.97;4367583;32;33424;-90
2022/05/22 01:55:51;;;;;;;2.03;1.27;;;;;;;17.57;49.89;99809.06;4355384;32;32785;-90
2022/05/22 01:58:19;;;;;;;0.90;0.80;;;;;;;17.67;49.32;99809.25;4367695;32;32449;-91
2022/05/22 02:00:47;;;;;;;1.35;0.90;;;;;;;17.65;49.14;99809.34;4379823;32;32635;-90
2022/05/22 02:03:15;;;;;;;1.50;1.08;;;;;;;17.72;49.21;99806.22;4355004;32;32865;-90
2022/05/22 02:05:45;;;;;;;4.18;0.90;;;;;;;17.84;48.81;99808.03;4376813;32;33814;-90
2022/05/22 02:08:25;;;;;;;3.40;1.12;;;;;;;17.79;49.62;99802.16;4352331;32;33492;-90
2022/05/22 02:10:56;;;;;;;0.88;0.80;;;;;;;17.86;48.47;99806.09;4364588;32;32940;-90
2022/05/22 02:13:28;;;;;;;1.58;1.05;;;;;;;17.93;48.79;99802.00;4364618;32;33134;-90
2022/05/22 02:15:57;;;;;;;1.15;0.90;;;;;;;17.77;48.65;99810.31;4371342;32;32705;-90
2022/05/22 02:18:30;;;;;;;2.87;0.90;;;;;;;17.72;49.30;99803.56;4383016;32;33221;-90
2022/05/22 02:21:01;;;;;;;2.25;0.95;;;;;;;17.66;49.40;99792.38;4363474;32;33923;-90
2022/05/22 02:23:32;;;;;;;1.00;0.82;;;;;;;17.87;48.32;99803.31;4371521;32;32930;-89
2022/05/22 02:26:02;;;;;;;0.88;0.85;;;;;;;17.71;47.59;99799.16;4365997;32;33789;-90
2022/05/22 02:28:31;;;;;;;1.40;1.23;;;;;;;17.61;48.31;99794.53;4366626;32;32748;-91
2022/05/22 02:31:01;;;;;;;0.98;0.88;;;;;;;17.70;48.46;99798.31;4367188;32;33300;-86
2022/05/22 02:33:30;;;;;;;1.50;1.10;;;;;;;17.97;47.11;99795.47;4380999;32;33793;-87
2022/05/22 02:36:00;;;;;;;0.80;0.80;;;;;;;17.73;48.51;99802.59;4377923;32;34524;-87
2022/05/22 02:38:29;;;;;;;2.17;1.10;;;;;;;17.91;47.44;99806.62;4388569;32;33500;-87
2022/05/22 02:40:58;;;;;;;1.30;0.80;;;;;;;17.92;46.84;99809.16;4380925;32;33463;-87
2022/05/22 02:43:25;;;;;;;5.45;1.33;;;;;;;18.10;46.94;99812.28;4370956;32;32801;-87
2022/05/22 02:45:54;;;;;;;1.83;1.02;;;;;;;18.13;46.54;99806.69;4384849;32;33221;-87
2022/05/22 02:48:24;;;;;;;1.05;0.93;;;;;;;18.34;46.15;99803.41;4385639;32;33019;-87
2022/05/22 02:50:53;;;;;;;2.55;1.12;;;;;;;18.34;46.65;99809.59;4395200;32;33464;-87
2022/05/22 02:53:21;;;;;;;1.58;0.90;;;;;;;18.43;45.99;99808.06;4397126;32;34074;-88
2022/05/22 02:55:52;;;;;;;1.17;0.95;;;;;;;18.25;46.37;99809.44;4394674;32;34343;-88
2022/05/22 02:58:21;;;;;;;1.30;0.75;;;;;;;18.23;46.15;99811.34;4392908;32;33277;-88
2022/05/22 03:00:49;;;;;;;1.27;0.80;;;;;;;17.94;46.30;99806.38;4385533;32;33062;-88
2022/05/22 03:03:17;;;;;;;0.62;0.52;;;;;;;18.30;44.24;99807.28;4385435;32;33658;-88
2022/05/22 03:08:34;;;;;;;1.83;1.17;;;;;;;18.38;43.91;99812.91;4391629;32;32829;-89
2022/05/22 03:11:03;;;;;;;2.05;0.88;;;;;;;18.08;44.68;99811.53;4365082;32;32734;-88
2022/05/22 03:13:31;;;;;;;1.50;1.17;;;;;;;18.44;42.97;99804.41;4378387;32;33151;-88
2022/05/22 03:15:59;;;;;;;1.02;0.77;;;;;;;18.53;43.12;99803.69;4391302;32;33838;-88
2022/05/22 03:18:27;;;;;;;9.38;1.05;;;;;;;18.51;42.38;99810.97;4375917;32;33767;-87
2022/05/22 03:20:56;;;;;;;3.37;0.82;;;;;;;18.57;42.25;99807.84;4397735;32;33631;-88
2022/05/22 03:23:24;;;;;;;0.80;0.70;;;;;;;18.50;42.42;99814.62;4362027;32;33404;-87
2022/05/22 03:25:52;;;;;;;1.62;1.08;;;;;;;18.41;42.95;99809.97;4376309;32;32935;-88
2022/05/22 03:28:23;;;;;;;2.08;0.85;;;;;;;18.71;41.55;99811.31;4372902;32;33090;-87
2022/05/22 03:30:52;;;;;;;4.57;0.95;;;;;;;18.52;41.86;99804.69;4384438;32;34593;-87
2022/05/22 03:33:22;;;;;;;1.00;0.82;;;;;;;18.39;43.10;99801.22;4390671;32;34918;-90
2022/05/22 03:35:52;;;;;;;1.00;0.90;;;;;;;18.61;42.41;99803.97;4380019;32;33529;-91
2022/05/22 03:38:20;;;;;;;1.65;0.80;;;;;;;18.56;42.91;99808.81;4383227;32;34250;-87
2022/05/22 03:40:49;;;;;;;1.35;0.90;;;;;;;18.58;42.90;99809.53;4396552;32;34371;-87
2022/05/22 03:43:18;;;;;;;0.80;0.55;;;;;;;18.88;42.46;99813.53;4383216;32;35179;-88
2022/05/22 03:45:48;;;;;;;1.92;0.90;;;;;;;18.78;42.99;99820.56;4384940;32;31995;-87
2022/05/22 03:48:17;;;;;;;1.10;0.55;;;;;;;18.67;43.10;99822.22;4394318;32;33982;-87
2022/05/22 03:50:48;;;;;;;2.58;0.98;;;;;;;19.05;42.16;99820.25;4371695;32;32874;-88
2022/05/22 03:53:21;;;;;;;1.10;0.75;;;;;;;18.82;43.33;99838.94;4367227;32;33985;-87
2022/05/22 03:55:49;;;;;;;1.50;0.77;;;;;;;18.65;44.45;99834.84;4370168;32;33706;-87
2022/05/22 03:58:17;;;;;;;4.53;1.00;;;;;;;19.06;42.16;99828.13;4372388;32;32004;-88
2022/05/22 04:00:49;;;;;;;3.97;0.90;;;;;;;18.50;44.26;99836.00;4366129;32;32620;-87
2022/05/22 04:03:17;;;;;;;1.48;0.85;;;;;;;18.87;43.24;99839.44;4370900;32;32695;-87
2022/05/22 04:05:45;;;;;;;2.45;1.10;;;;;;;18.59;43.90;99839.81;4364918;32;34723;-87
2022/05/22 04:08:13;;;;;;;2.50;1.02;;;;;;;18.78;43.56;99844.62;4383274;32;33044;-87
2022/05/22 04:10:42;;;;;;;1.30;1.00;;;;;;;18.80;43.70;99843.56;4377804;32;32558;-88
2022/05/22 04:13:10;;;;;;;1.87;1.17;;;;;;;18.74;43.57;99848.50;4385594;32;33871;-87
2022/05/22 04:15:38;;;;;;;1.23;0.75;;;;;;;18.82;43.98;99843.44;4384629;32;33765;-87
2022/05/22 04:18:06;;;;;;;1.48;0.98;;;;;;;18.89;42.88;99841.97;4383739;32;32733;-87
2022/05/22 04:20:35;;;;;;;2.85;1.27;;;;;;;19.07;43.66;99839.69;4377080;32;33038;-87
2022/05/22 04:25:57;;;;;;;8.02;0.88;;;;;;;19.37;42.42;99842.66;4388251;32;33582;-86
2022/05/22 04:28:27;;;;;;;3.17;1.17;;;;;;;18.98;44.08;99846.59;4378867;32;32632;-88
2022/05/22 04:30:58;;;;;;;;;;;;;;;19.05;43.84;99847.84;4380120;32;33791;-87
2022/05/22 04:33:26;;;;;;;4.40;1.17;;;;;;;19.09;43.31;99849.31;4376958;32;33664;-91
2022/05/22 04:35:57;;;;;;;3.80;0.82;;;;;;;19.34;42.70;99844.72;4385863;32;33031;-89
2022/05/22 04:38:26;;;;;;;0.85;0.70;;;;;;;19.10;43.02;99840.31;4397185;32;33796;-89
2022/05/22 04:40:56;;;;;;;2.92;1.00;;;;;;;19.28;42.47;99842.53;4370974;32;33562;-88
2022/05/22 04:43:25;;;;;;;5.40;1.33;;;;;;;19.41;42.47;99843.22;4365362;32;33113;-89
2022/05/22 04:45:54;;;;;;;1.73;1.00;;;;;;;19.47;42.74;99841.91;4379008;32;34481;-89
2022/05/22 04:48:24;;;;;;;4.70;0.93;;;;;;;19.66;42.15;99851.06;4372877;32;32335;-88
2022/05/22 04:50:55;;;;;;;0.80;0.80;;;;;;;19.73;42.10;99848.72;4356235;32;33071;-88
2022/05/22 04:53:25;;;;;;;1.27;1.05;;;;;;;19.54;43.00;99846.63;4379724;32;35881;-91
2022/05/22 04:55:56;;;;;;;1.45;1.25;;;;;;;19.72;42.66;99855.06;4368391;32;32666;-90
2022/05/22 05:02:10;;;;;;;2.40;1.08;;;;;;;19.84;41.93;99845.16;4391524;32;32590;-87
2022/05/22 05:04:39;;;;;;;2.58;1.25;;;;;;;19.50;42.32;99850.53;4372602;32;34109;-86
2022/05/22 05:07:09;;;;;;;4.22;0.95;;;;;;;19.70;42.30;99848.97;4379211;32;32736;-87
2022/05/22 05:09:39;;;;;;;3.12;1.10;;;;;;;19.63;42.60;99847.75;4366789;32;33124;-87
2022/05/22 05:12:09;;;;;;;2.67;0.95;;;;;;;19.76;42.27;99837.75;4370518;32;34173;-88
2022/05/22 05:14:37;;;;;;;3.60;1.00;;;;;;;19.93;42.46;99839.06;4390055;32;33843;-87
2022/05/22 05:17:10;;;;;;;2.28;1.12;;;;;;;19.37;42.76;99847.13;4379365;32;32518;-88
2022/05/22 05:19:39;;;;;;;2.55;0.82;;;;;;;19.54;42.84;99849.31;4387567;32;33427;-87
2022/05/22 05:22:09;;;;;;;3.75;1.10;;;;;;;19.69;42.82;99848.09;4384463;32;34696;-89
2022/05/22 05:24:38;;;;;;;3.22;1.25;;;;;;;19.87;42.34;99837.72;4376897;32;33850;-87
2022/05/22 05:27:07;;;;;;;1.67;1.12;;;;;;;19.81;42.12;99845.44;4377820;32;32980;-88
2022/05/22 05:29:58;;;;;;;1.45;0.88;;;;;;;19.77;43.07;99849.34;4376496;32;33422;-88
2022/05/22 05:32:31;;;;;;;1.75;0.88;;;;;;;19.77;43.03;99852.00;4383354;32;33054;-88
2022/05/22 05:35:03;;;;;;;5.47;1.08;;;;;;;19.89;42.30;99849.19;4376858;32;34150;-88
2022/05/22 05:37:34;;;;;;;1.50;1.37;;;;;;;19.98;42.34;99846.72;4375169;32;33899;-88
2022/05/22 05:40:04;;;;;;;1.62;1.52;;;;;;;19.97;41.51;99851.22;4378872;32;33106;-89
2022/05/22 05:42:35;;;;;;;3.97;1.35;;;;;;;20.10;42.08;99846.56;4369694;32;33434;-88
2022/05/22 05:45:08;;;;;;;1.62;1.33;;;;;;;19.98;41.77;99852.06;4384195;32;33114;-88
2022/05/22 05:47:36;;;;;;;0.70;0.70;;;;;;;20.37;41.07;99853.31;4377649;32;32664;-87
2022/05/22 05:50:06;;;;;;;4.05;1.17;;;;;;;20.30;41.61;99852.09;4387661;32;32803;-88
2022/05/22 05:52:39;;;;;;;;;;;;;;;20.21;42.23;99851.88;4384124;32;33741;-88
2022/05/22 05:55:09;;;;;;;0.98;0.90;;;;;;;20.07;42.66;99854.00;4381358;32;33015;-87
2022/05/22 05:57:41;;;;;;;2.87;1.37;;;;;;;19.90;42.82;99855.41;4378596;32;32485;-86
2022/05/22 06:00:15;;;;;;;2.15;0.80;;;;;;;20.09;41.90;99855.59;4391630;32;32291;-87
2022/05/22 06:02:50;;;;;;;0.70;0.70;;;;;;;20.51;41.76;99854.84;4372847;32;32156;-86
2022/05/22 06:05:27;;;;;;;2.08;1.00;;;;;;;20.28;41.65;99859.44;4389779;32;32758;-87
2022/05/22 06:07:58;;;;;;;2.62;1.37;;;;;;;19.87;42.29;99855.63;4394293;32;33337;-90
2022/05/22 06:10:27;;;;;;;1.15;0.90;;;;;;;20.26;41.80;99842.63;4373535;32;33084;-91
2022/05/22 06:12:57;;;;;;;1.85;1.10;;;;;;;20.30;43.30;99844.06;4385849;32;33410;-91
2022/05/22 06:15:26;;;;;;;2.85;1.10;;;;;;;20.08;43.21;99843.19;4393247;32;33914;-90
2022/05/22 06:17:56;;;;;;;3.92;1.00;;;;;;;20.46;41.71;99837.28;4367238;32;33156;-90
2022/05/22 06:20:29;;;;;;;2.72;0.80;;;;;;;20.53;41.37;99845.69;4396420;32;32683;-89
2022/05/22 06:23:08;;;;;;;2.08;0.82;;;;;;;20.51;41.39;99842.31;4394298;32;34723;-89
2022/05/22 06:26:06;;;;;;;1.83;1.10;;;;;;;20.49;42.19;99846.09;4397399;32;33664;-90
2022/05/22 06:28:37;;;;;;;1.75;1.30;;;;;;;20.35;41.41;99844.53;4394287;32;33191;-90
2022/05/22 06:31:08;;;;;;;3.75;0.90;;;;;;;20.42;41.09;99845.72;4393529;32;32751;-90
2022/05/22 06:33:36;;;;;;;1.73;1.10;;;;;;;20.75;41.32;99851.91;4381263;32;33265;-90
2022/05/22 06:36:09;;;;;;;1.70;1.17;;;;;;;20.84;40.35;99840.41;4381486;32;33936;-90
2022/05/22 06:41:29;;;;;;;1.75;1.20;;;;;;;21.07;39.93;99831.22;4388499;32;31863;-90
2022/05/22 06:43:58;;;;;;;4.10;1.05;;;;;;;20.85;40.31;99842.13;4378192;32;32510;-89
2022/05/22 06:46:33;;;;;;;1.10;0.88;;;;;;;20.88;40.59;99841.84;4365932;32;33872;-90
2022/05/22 06:49:08;;;;;;;3.15;1.00;;;;;;;21.01;40.64;99847.84;4387683;32;32616;-90
2022/05/22 06:51:37;;;;;;;2.08;1.05;;;;;;;20.96;41.13;99847.41;4389746;32;32126;-89
2022/05/22 06:54:06;;;;;;;1.98;1.20;;;;;;;20.82;41.26;99850.44;4390942;32;34531;-91
2022/05/22 06:56:35;;;;;;;2.33;1.02;;;;;;;21.16;39.26;99841.16;4378671;32;33301;-91
2022/05/22 06:59:09;;;;;;;1.67;1.08;;;;;;;21.50;39.18;99832.00;4378739;32;33074;-88
2022/05/22 07:01:39;;;;;;;2.80;1.20;;;;;;;21.20;39.04;99839.06;4390866;32;33694;-89
2022/05/22 07:04:09;;;;;;;1.50;1.10;;;;;;;21.28;38.53;99828.50;4380317;32;32964;-90
2022/05/22 07:06:37;;;;;;;2.33;1.08;;;;;;;21.14;39.02;99827.03;4368164;32;33694;-87
2022/05/22 07:09:07;;;;;;;1.30;0.95;;;;;;;21.51;38.97;99826.50;4382717;32;32902;-86
2022/05/22 07:11:38;;;;;;;4.28;1.20;;;;;;;21.65;38.23;99826.13;4377502;32;32250;-87
2022/05/22 07:14:14;;;;;;;1.15;1.00;;;;;;;21.79;37.85;99816.84;4367669;32;32671;-87
2022/05/22 07:16:53;;;;;;;3.47;1.20;;;;;;;21.95;37.64;99813.59;4379042;32;33865;-87
2022/05/22 07:19:27;;;;;;;2.83;1.25;;;;;;;22.24;38.03;99811.81;4368885;32;33524;-88
2022/05/22 07:21:57;;;;;;;4.45;1.17;;;;;;;22.58;36.35;99814.03;4375836;32;32324;-92
2022/05/22 07:24:29;;;;;;;2.25;0.95;;;;;;;22.60;36.62;99819.28;4355705;32;34265;-92
2022/05/22 07:27:22;;;;;;;2.72;1.08;;;;;;;22.43;35.70;99808.25;4376634;32;33408;-89
2022/05/22 07:29:55;;;;;;;1.17;1.00;;;;;;;21.91;37.10;99810.31;4366594;32;33962;-89
2022/05/22 07:32:32;;;;;;;2.03;1.30;;;;;;;22.27;35.21;99804.47;4384316;32;32929;-90
2022/05/22 07:35:02;;;;;;;1.17;1.05;;;;;;;22.38;35.75;99804.31;4372728;32;33874;-88
2022/05/22 07:37:36;;;;;;;2.30;1.17;;;;;;;22.41;35.93;99812.94;4388481;32;34004;-88
2022/05/22 07:40:11;;;;;;;2.12;0.95;;;;;;;22.45;35.64;99808.09;4370269;32;470686;-88
2022/05/22 07:42:43;;;;;;;2.95;1.08;;;;;;;22.56;34.92;99809.81;4366164;32;32379;-88
2022/05/22 07:45:15;;;;;;;1.15;0.85;;;;;;;22.35;35.15;99800.03;4376278;32;32724;-88
2022/05/22 07:47:46;;;;;;;1.42;0.70;;;;;;;22.65;34.03;99798.19;4364266;32;33808;-88
2022/05/22 07:50:16;;;;;;;3.10;1.17;;;;;;;22.72;35.07;99794.75;4389128;32;33956;-88
2022/05/22 07:52:49;;;;;;;1.12;0.60;;;;;;;22.58;34.54;99792.53;4389400;32;31067;-88
2022/05/22 07:55:21;;;;;;;3.70;0.80;;;;;;;22.69;34.32;99794.19;4374895;32;32797;-89
2022/05/22 07:57:50;;;;;;;2.50;0.98;;;;;;;22.90;33.25;99792.22;4386642;32;33966;-88
2022/05/22 08:00:26;;;;;;;1.10;0.70;;;;;;;23.34;34.13;99791.62;4379726;32;33628;-88
2022/05/22 08:02:58;;;;;;;1.98;1.10;;;;;;;23.60;32.86;99781.84;4388733;32;33662;-88
2022/05/22 08:05:29;;;;;;;1.45;0.90;;;;;;;23.73;31.45;99779.63;4384095;32;33813;-89
2022/05/22 08:08:08;;;;;;;1.25;1.00;;;;;;;23.85;32.21;99779.44;4392183;32;34717;-89
2022/05/22 08:10:42;;;;;;;2.85;0.80;;;;;;;23.71;32.50;99773.56;4379501;32;33670;-89
2022/05/22 08:13:15;;;;;;;2.12;0.70;;;;;;;23.61;31.87;99775.44;4386584;32;33429;-89
2022/05/22 08:15:46;;;;;;;0.90;0.68;;;;;;;23.65;32.20;99776.03;4367030;32;33035;-89
2022/05/22 08:18:16;;;;;;;2.85;0.80;;;;;;;23.80;32.29;99762.88;4365905;32;33888;-89
2022/05/22 08:20:50;;;;;;;1.42;0.57;;;;;;;23.55;32.70;99765.28;4391855;32;34636;-91
2022/05/22 08:23:20;;;;;;;4.37;0.82;;;;;;;24.03;30.71;99758.72;4365117;32;33590;-88
2022/05/22 08:25:59;;;;;;;1.98;0.60;;;;;;;23.87;31.14;99756.69;4382613;32;33756;-89
2022/05/22 08:31:06;;;;;;;2.33;0.77;;;;;;;24.33;30.73;99764.72;4378128;32;33164;-88
2022/05/22 08:33:34;;;;;;;1.05;0.88;;;;;;;24.23;29.36;99752.16;4365024;32;32580;-88
2022/05/22 08:36:05;;;;;;;1.77;0.88;;;;;;;24.39;29.97;99756.03;4388767;32;33746;-93
2022/05/22 08:39:03;;;;;;;3.45;0.60;;;;;;;24.47;29.53;99759.63;4377879;32;34514;-92
2022/05/22 08:41:58;;;;;;;1.50;0.93;;;;;;;24.23;29.85;99748.63;4389866;32;32565;-92
2022/05/22 08:44:56;;;;;;;1.83;0.77;;;;;;;23.96;30.53;99752.25;4392528;32;33223;-92
2022/05/22 08:48:01;;;;;;;4.03;1.25;;;;;;;24.10;31.51;99751.69;4385976;32;32352;-91
2022/05/22 08:50:46;;;;;;;0.65;0.52;;;;;;;24.17;31.01;99749.25;4401224;32;33271;-94
2022/05/22 08:53:40;;;;;;;3.62;1.10;;;;;;;23.68;31.87;99754.16;4341263;32;33302;-88
2022/05/22 08:59:12;;;;;;;7.40;1.50;;;;;;;24.10;30.27;99738.22;4376318;32;33289;-89
2022/05/22 09:02:10;;;;;;;2.80;0.98;;;;;;;24.07;31.68;99743.06;4375054;32;33968;-89
2022/05/22 09:05:05;;;;;;;1.60;0.70;;;;;;;23.94;31.06;99738.06;4355475;32;32588;-89
2022/05/22 09:08:15;;;;;;;2.10;0.77;;;;;;;24.52;30.55;99740.25;4348592;32;32328;-89
2022/05/22 09:11:13;;;;;;;2.42;0.80;;;;;;;24.84;29.58;99728.00;4307810;33;32212;-89
2022/05/22 09:14:01;;;;;;;1.45;0.60;;;;;;;24.80;29.57;99727.47;4376806;32;32716;-89
2022/05/22 09:16:35;;;;;;;1.00;0.70;;;;;;;24.81;28.50;99715.62;4371049;32;33559;-90
2022/05/22 09:19:22;;;;;;;1.48;0.40;;;;;;;24.97;27.13;99715.75;4376673;32;32389;-89
2022/05/22 09:22:30;;;;;;;2.87;0.70;;;;;;;25.28;27.51;99705.25;4371306;32;32888;-89
2022/05/22 09:25:19;;;;;;;1.10;0.70;;;;;;;25.29;28.34;99714.19;4363996;32;34121;-90
2022/05/22 09:27:59;;;;;;;2.10;0.60;;;;;;;25.28;26.82;99707.94;4380125;32;33513;-89
2022/05/22 09:33:59;;;;;;;1.70;0.80;;;;;;;25.62;27.67;99706.19;4368974;32;33275;-89
2022/05/22 09:36:59;;;;;;;2.30;0.70;;;;;;;25.23;26.50;99698.66;4375519;32;33996;-89
2022/05/22 09:39:51;;;;;;;1.08;0.75;;;;;;;25.16;27.08;99693.06;4376552;32;33988;-89
2022/05/22 09:42:44;;;;;;;1.37;0.75;;;;;;;24.89;28.47;99690.53;4374752;32;34136;-89
2022/05/22 09:45:38;;;;;;;3.12;1.23;;;;;;;25.41;28.25;99695.84;4375900;32;32985;-89
2022/05/22 09:48:26;;;;;;;0.73;0.73;;;;;;;25.43;28.45;99699.22;4376690;32;33706;-89
2022/05/22 09:51:16;;;;;;;1.73;0.57;;;;;;;25.67;26.69;99693.84;4369944;32;32968;-89
2022/05/22 09:54:28;;;;;;;1.05;0.73;;;;;;;25.76;26.66;99684.78;4362703;32;33602;-90
2022/05/22 09:57:25;;;;;;;0.85;0.65;;;;;;;26.00;25.56;99691.22;4360472;32;32434;-89
2022/05/22 10:00:09;;;;;;;3.22;0.80;;;;;;;26.09;25.56;99679.38;4349324;32;34004;-89
2022/05/22 10:02:55;;;;;;;1.12;0.62;;;;;;;26.33;25.90;99674.97;4341917;32;33111;-89
2022/05/22 10:05:58;;;;;;;4.30;1.00;;;;;;;26.35;26.37;99686.44;4357724;32;32707;-90
2022/05/22 10:08:49;;;;;;;1.67;0.70;;;;;;;26.37;25.86;99687.97;4355407;32;34100;-90
2022/05/22 10:11:26;;;;;;;0.80;0.50;;;;;;;26.07;27.48;99673.31;4353427;32;33764;-89
2022/05/22 10:14:11;;;;;;;1.25;0.65;;;;;;;26.32;26.63;99676.81;4341159;32;32789;-90
2022/05/22 10:16:43;;;;;;;3.17;0.70;;;;;;;26.31;26.75;99675.13;4348733;32;33388;-89
2022/05/22 10:19:42;;;;;;;1.87;0.73;;;;;;;26.30;25.70;99666.19;4354315;32;33699;-89
2022/05/22 10:27:04;;;;;;;1.75;0.62;;;;;;;26.10;27.04;99670.22;4357252;32;34205;-90
2022/05/22 10:29:41;;;;;;;1.75;0.50;;;;;;;25.55;27.34;99660.06;4351684;32;32501;-89
2022/05/22 10:32:29;;;;;;;3.00;0.88;;;;;;;25.70;25.27;99652.97;4360882;32;32854;-89
2022/05/22 10:35:05;;;;;;;2.08;0.80;;;;;;;25.76;25.84;99655.03;4360930;32;32820;-90
2022/05/22 10:37:55;;;;;;;2.90;0.77;;;;;;;25.97;26.37;99649.13;4364184;32;32925;-89
2022/05/22 10:43:21;;;;;;;1.17;0.55;;;;;;;26.13;25.90;99636.59;4346454;32;32915;-89
2022/05/22 10:45:50;;;;;;;0.95;0.60;;;;;;;26.01;26.98;99631.50;4347681;32;34582;-89
2022/05/22 10:48:23;;;;;;;8.25;0.73;;;;;;;26.04;25.95;99633.88;4354850;32;33149;-89
2022/05/22 10:51:07;;;;;;;1.60;0.77;;;;;;;25.99;26.56;99638.13;4352019;32;33328;-90
2022/05/22 10:53:51;;;;;;;1.55;0.65;;;;;;;25.92;26.06;99646.09;4361054;32;33548;-90
2022/05/22 10:59:19;;;;;;;2.67;0.70;;;;;;;26.16;26.25;99637.09;4361039;32;32555;-89
2022/05/22 11:02:00;;;;;;;2.65;1.12;;;;;;;26.01;25.67;99638.78;4349147;32;33344;-88
2022/05/22 11:04:43;;;;;;;0.98;0.60;;;;;;;25.78;26.52;99650.31;4336956;32;32814;-88
2022/05/22 11:07:47;;;;;;;1.42;0.50;;;;;;;25.89;25.80;99650.97;4358508;32;33785;-88
2022/05/22 11:10:22;;;;;;;4.05;0.90;;;;;;;25.95;25.43;99656.53;4341961;32;33957;-89
2022/05/22 11:13:06;;;;;;;0.40;0.30;;;;;;;26.12;25.66;99649.28;4361034;32;32693;-88
2022/05/22 11:15:39;;;;;;;1.75;0.73;;;;;;;26.54;26.07;99642.81;4361560;32;32496;-89
2022/05/22 11:18:17;;;;;;;3.08;0.80;;;;;;;26.66;25.62;99638.69;4355874;32;33927;-88
2022/05/22 11:21:02;;;;;;;1.58;0.55;;;;;;;26.83;24.70;99627.81;4355796;32;34099;-89
2022/05/22 11:23:38;;;;;;;1.62;0.60;;;;;;;26.83;25.13;99638.66;4350529;32;32686;-88
2022/05/22 11:26:26;;;;;;;2.50;0.90;;;;;;;27.01;24.26;99625.66;4355950;32;33372;-88
2022/05/22 11:28:59;;;;;;;2.45;0.80;;;;;;;26.81;26.52;99620.69;4361821;32;32819;-88
2022/05/22 11:31:51;;;;;;;4.53;1.02;;;;;;;26.55;25.32;99625.53;4362077;32;32721;-88
2022/05/22 11:34:56;;;;;;;3.62;0.75;;;;;;;26.02;25.00;99614.28;4355445;32;32809;-88
2022/05/22 11:37:50;;;;;;;3.45;0.80;;;;;;;25.56;26.17;99633.84;4361263;32;32589;-88
2022/05/22 11:40:27;;;;;;;6.07;1.15;;;;;;;25.72;25.41;99629.28;4362574;32;34895;-89
2022/05/22 11:43:09;;;;;;;2.70;1.00;;;;;;;26.06;25.73;99620.19;4362241;32;34700;-89
2022/05/22 11:46:15;;;;;;;2.90;0.85;;;;;;;26.43;25.12;99614.22;4357534;32;33753;-89
2022/05/22 11:48:49;;;;;;;2.45;0.88;;;;;;;26.78;25.21;99593.97;4324257;32;32657;-89
2022/05/22 11:51:39;;;;;;;3.53;0.95;;;;;;;26.50;25.22;99611.69;4350444;32;35976;-88
2022/05/22 11:54:36;;;;;;;2.85;1.33;;;;;;;26.74;26.84;99602.63;4365701;32;33577;-88
2022/05/22 11:57:27;;;;;;;3.55;0.70;;;;;;;27.09;25.18;99601.28;4372961;32;33533;-89
2022/05/22 12:00:23;;;;;;;1.87;0.77;;;;;;;26.99;24.55;99597.91;4377794;32;33520;-90
2022/05/22 12:03:37;;;;;;;1.23;1.08;;;;;;;27.29;25.52;99580.81;4371254;32;35857;-89
2022/05/22 12:06:24;;;;;;;2.65;0.57;;;;;;;27.09;24.45;99590.44;4371725;32;33286;-89
2022/05/22 12:09:28;;;;;;;2.10;0.50;;;;;;;27.14;24.87;99577.19;4372938;32;34103;-92
2022/05/22 12:12:23;;;;;;;2.95;0.68;;;;;;;27.66;24.65;99571.03;4374849;32;33068;-88
2022/05/22 12:15:40;;;;;;;1.48;0.73;;;;;;;27.18;23.52;99575.81;4363096;32;34397;-89
2022/05/22 12:21:22;;;;;;;1.85;0.65;;;;;;;27.24;23.94;99566.97;4379082;32;33027;-90
2022/05/22 12:24:13;;;;;;;3.72;0.93;;;;;;;26.96;24.40;99573.87;4377986;32;33851;-89
2022/05/22 12:26:42;;;;;;;1.45;0.60;;;;;;;27.04;24.99;99568.41;4364984;32;32506;-90
2022/05/22 12:29:25;;;;;;;2.05;0.60;;;;;;;27.02;24.94;99556.94;4377615;32;33546;-90
2022/05/22 12:31:56;;;;;;;2.90;0.70;;;;;;;26.94;24.10;99554.25;4365259;32;33229;-90
2022/05/22 12:34:34;;;;;;;1.25;0.80;;;;;;;27.13;24.76;99561.13;4371138;32;32051;-92
2022/05/22 12:37:26;;;;;;;1.27;0.80;;;;;;;26.84;27.35;99567.19;4363327;32;34722;-87
2022/05/22 12:40:26;;;;;;;2.10;0.90;;;;;;;26.60;25.21;99563.56;4367237;32;34039;-87
2022/05/22 12:42:59;;;;;;;2.03;0.70;;;;;;;26.46;25.87;99548.06;4367508;32;33749;-86
2022/05/22 12:45:33;;;;;;;3.53;0.95;;;;;;;25.91;25.81;99567.78;4373974;32;33819;-87
2022/05/22 12:48:32;;;;;;;2.37;0.90;;;;;;;26.05;25.66;99567.94;4373013;32;33010;-86
2022/05/22 12:51:08;;;;;;;1.95;0.88;;;;;;;26.47;25.14;99557.88;4374320;32;33819;-86